createdAt,value
2022-10-26T01:23:09.258Z,16.90
2022-10-26T01:25:48.938Z,17.00
2022-10-26T01:28:32.891Z,17.00
2022-10-26T01:31:04.733Z,17.00
2022-10-26T01:33:39.473Z,17.00
2022-10-26T01:36:13.521Z,17.00
2022-10-26T01:38:51.858Z,17.00
2022-10-26T01:41:28.206Z,17.10
2022-10-26T01:44:00.331Z,17.00
2022-10-26T01:46:33.549Z,17.00
2022-10-26T01:49:06.341Z,17.00
2022-10-26T01:51:35.858Z,17.10
2022-10-26T01:54:04.082Z,17.00
2022-10-26T01:56:36.132Z,17.00
2022-10-26T01:59:30.983Z,16.80
2022-10-26T02:02:36.981Z,16.90
2022-10-26T02:05:25.301Z,16.80
2022-10-26T02:08:08.595Z,16.80
2022-10-26T02:10:50.188Z,16.70
2022-10-26T02:13:28.147Z,16.80
2022-10-26T02:16:03.194Z,16.80
2022-10-26T02:18:39.304Z,16.90
2022-10-26T02:21:12.330Z,16.90
2022-10-26T02:23:43.277Z,17.00
2022-10-26T02:26:15.156Z,17.00
2022-10-26T02:28:48.000Z,16.90
2022-10-26T02:31:17.682Z,17.00
2022-10-26T02:36:22.969Z,16.80
2022-10-26T02:38:54.063Z,16.70
2022-10-26T02:41:24.987Z,16.70
2022-10-26T02:43:57.723Z,16.70
2022-10-26T02:46:28.135Z,16.70
2022-10-26T02:48:58.284Z,16.70
2022-10-26T02:51:35.694Z,16.70
2022-10-26T02:54:11.738Z,16.70
2022-10-26T02:56:46.723Z,16.70
2022-10-26T02:59:17.819Z,16.70
2022-10-26T03:01:46.466Z,16.70
2022-10-26T03:04:16.258Z,16.70
2022-10-26T03:06:52.599Z,16.70
2022-10-26T03:09:23.470Z,16.80
2022-10-26T03:11:54.023Z,16.80
2022-10-26T03:14:22.396Z,16.80
2022-10-26T03:19:21.606Z,16.70
2022-10-26T03:21:49.830Z,17.00
2022-10-26T03:24:18.067Z,16.70
2022-10-26T03:26:46.441Z,16.70
2022-10-26T03:29:14.689Z,16.80
2022-10-26T03:31:42.923Z,16.70
2022-10-26T03:34:11.132Z,16.70
2022-10-26T03:36:40.861Z,16.80
2022-10-26T03:39:09.250Z,16.80
2022-10-26T03:41:37.457Z,16.80
2022-10-26T03:44:07.039Z,16.80
2022-10-26T03:46:35.259Z,16.90
2022-10-26T03:49:03.520Z,16.80
2022-10-26T03:51:31.995Z,16.90
2022-10-26T03:54:01.727Z,16.90
2022-10-26T03:56:29.961Z,16.80
2022-10-26T03:58:58.301Z,16.80
2022-10-26T04:01:26.645Z,16.80
2022-10-26T04:03:55.115Z,16.80
2022-10-26T04:06:23.469Z,16.70
2022-10-26T05:21:21.278Z,15.90
2022-10-26T05:23:52.665Z,16.40
2022-10-26T05:26:21.549Z,16.00
2022-10-26T05:28:49.791Z,16.00
2022-10-26T05:31:19.174Z,16.00
2022-10-26T05:34:17.715Z,16.00
2022-10-26T05:39:44.811Z,16.20
2022-10-26T05:42:52.833Z,16.20
2022-10-26T05:46:00.548Z,16.20
2022-10-26T05:48:29.950Z,16.30
2022-10-26T05:51:02.474Z,16.30
2022-10-26T05:53:31.939Z,16.30
2022-10-26T05:56:00.602Z,16.40
2022-10-26T05:58:29.243Z,16.60
2022-10-26T06:01:11.552Z,16.60
2022-10-26T06:03:54.933Z,16.50
2022-10-26T06:06:23.957Z,16.50
2022-10-26T06:08:54.121Z,16.50
2022-10-26T06:11:22.967Z,16.60
2022-10-26T06:14:00.287Z,16.60
2022-10-26T06:16:48.554Z,16.50
2022-10-26T06:19:27.187Z,16.40
2022-10-26T06:22:12.422Z,16.30
2022-10-26T06:25:02.593Z,16.40
2022-10-26T08:56:41.101Z,19.50
2022-10-26T08:59:19.319Z,19.00
2022-10-26T09:01:48.227Z,19.70
2022-10-26T09:04:16.970Z,19.10
2022-10-26T09:06:58.495Z,19.70
2022-10-26T09:09:39.590Z,19.60
2022-10-26T09:12:25.354Z,19.90
2022-10-26T09:15:06.445Z,19.90
2022-10-26T09:17:45.386Z,20.10
2022-10-26T09:20:41.033Z,20.20
2022-10-26T09:23:20.393Z,21.70
2022-10-26T09:25:55.569Z,22.30
2022-10-26T09:28:25.626Z,21.80
2022-10-26T09:30:56.499Z,21.20
2022-10-26T09:33:29.596Z,20.80
2022-10-26T09:36:18.514Z,20.80
2022-10-26T09:39:22.569Z,21.20
2022-10-26T09:46:49.509Z,21.10
2022-10-26T09:49:21.542Z,20.30
2022-10-26T09:51:51.065Z,20.70
2022-10-26T09:54:21.802Z,21.10
2022-10-26T09:56:53.465Z,21.10
2022-10-26T09:59:24.031Z,22.80
2022-10-26T10:01:53.647Z,26.50
2022-10-26T10:04:24.201Z,29.70
2022-10-26T10:06:53.975Z,32.00
2022-10-26T10:09:23.521Z,31.50
2022-10-26T10:11:58.029Z,29.60
2022-10-26T10:14:29.143Z,27.60
2022-10-26T10:17:03.818Z,26.20
2022-10-26T10:19:33.992Z,25.10
2022-10-26T10:22:09.891Z,24.60
2022-10-26T10:24:41.283Z,24.30
2022-10-26T10:27:19.511Z,23.90
2022-10-26T10:29:50.593Z,24.90
2022-10-26T10:32:21.942Z,25.40
2022-10-26T10:34:50.903Z,24.70
2022-10-26T10:37:27.244Z,24.10
2022-10-26T10:39:59.645Z,23.10
2022-10-26T10:42:31.704Z,24.40
2022-10-26T10:45:00.868Z,24.30
2022-10-26T10:47:32.848Z,24.80
2022-10-26T10:50:04.616Z,26.10
2022-10-26T10:52:35.301Z,29.50
2022-10-26T10:55:18.517Z,31.40
2022-10-26T10:58:04.351Z,31.80
2022-10-26T11:00:36.639Z,32.50
2022-10-26T11:03:39.947Z,32.00
2022-10-26T11:06:18.226Z,28.40
2022-10-26T11:08:52.056Z,27.00
2022-10-26T11:11:24.463Z,25.80
2022-10-26T11:14:02.920Z,25.10
2022-10-26T11:16:34.366Z,24.80
2022-10-26T11:19:09.239Z,25.10
2022-10-26T11:21:38.876Z,24.80
2022-10-26T11:24:16.514Z,24.70
2022-10-26T11:26:50.158Z,24.50
2022-10-26T11:29:27.299Z,24.40
2022-10-26T11:32:00.244Z,24.40
2022-10-26T11:34:36.198Z,24.00
2022-10-26T11:37:11.675Z,24.00
2022-10-26T11:39:46.360Z,23.90
2022-10-26T11:42:27.139Z,23.50
2022-10-26T11:45:02.515Z,23.40
2022-10-26T11:47:38.883Z,23.30
2022-10-26T11:50:17.678Z,23.30
2022-10-26T11:52:51.040Z,23.30
2022-10-26T11:55:20.931Z,23.00
2022-10-26T11:57:49.915Z,23.10
2022-10-26T12:00:20.597Z,23.20
2022-10-26T12:02:52.542Z,22.70
2022-10-26T12:05:26.487Z,22.60
2022-10-26T12:08:02.943Z,22.80
2022-10-26T12:10:33.651Z,23.00
2022-10-26T12:13:15.332Z,23.10
2022-10-26T12:16:02.911Z,23.00
2022-10-26T12:18:56.419Z,23.10
2022-10-26T12:21:29.538Z,23.20
2022-10-26T12:23:59.676Z,22.70
2022-10-26T12:26:51.824Z,22.50
2022-10-26T12:29:39.022Z,22.60
2022-10-26T12:32:50.196Z,22.70
2022-10-26T12:35:35.205Z,22.80
2022-10-26T12:38:50.052Z,23.00
2022-10-26T12:41:24.857Z,23.10
2022-10-26T12:43:58.357Z,23.20
2022-10-26T12:46:42.314Z,23.50
2022-10-26T12:49:58.468Z,23.90
2022-10-26T12:52:52.943Z,24.40
2022-10-26T12:56:06.284Z,24.40
2022-10-26T12:59:05.050Z,24.60
2022-10-26T13:01:52.281Z,24.90
2022-10-26T13:04:50.429Z,25.00
2022-10-26T13:07:21.886Z,25.10
2022-10-26T13:10:01.904Z,25.40
2022-10-26T13:12:40.670Z,25.30
2022-10-26T13:15:22.621Z,25.10
2022-10-26T13:18:08.319Z,25.00
2022-10-26T13:20:39.082Z,25.10
2022-10-26T13:23:20.750Z,25.30
2022-10-26T13:26:07.875Z,25.70
2022-10-26T13:28:47.560Z,26.00
2022-10-26T13:31:50.655Z,26.30
2022-10-26T13:34:21.931Z,26.10
2022-10-26T13:36:55.378Z,25.80
2022-10-26T13:39:25.515Z,26.10
2022-10-26T13:41:55.888Z,27.50
2022-10-26T13:44:30.394Z,29.30
2022-10-26T13:47:03.477Z,30.50
2022-10-26T13:49:39.211Z,31.30
2022-10-26T13:52:14.758Z,31.10
2022-10-26T13:54:47.402Z,30.30
2022-10-26T13:57:21.392Z,29.10
2022-10-26T13:59:52.847Z,27.50
2022-10-26T14:02:25.339Z,25.90
2022-10-26T14:04:55.242Z,25.20
2022-10-26T14:07:27.554Z,25.10
2022-10-26T14:09:57.402Z,24.90
2022-10-26T14:12:28.392Z,24.70
2022-10-26T14:15:06.793Z,24.60
2022-10-26T14:17:35.932Z,24.70
2022-10-26T14:20:05.429Z,24.90
2022-10-26T14:22:33.719Z,25.80
2022-10-26T14:25:02.657Z,26.50
2022-10-26T14:27:34.649Z,27.20
2022-10-26T14:30:23.808Z,27.80
2022-10-26T14:32:52.932Z,28.20
2022-10-26T14:35:23.816Z,28.20
2022-10-26T14:37:56.895Z,27.70
2022-10-26T14:40:28.743Z,27.00
2022-10-26T14:43:00.207Z,26.00
2022-10-26T14:45:48.218Z,25.50
2022-10-26T14:48:24.296Z,25.20
2022-10-26T14:51:03.318Z,24.60
2022-10-26T14:53:37.891Z,24.30
2022-10-26T14:56:17.697Z,24.30
2022-10-26T14:58:45.938Z,24.10
2022-10-26T15:01:29.257Z,24.10
2022-10-26T15:04:02.673Z,23.90
2022-10-26T15:06:39.406Z,23.90
2022-10-26T15:09:08.184Z,23.70
2022-10-26T15:11:42.722Z,23.60
2022-10-26T15:14:13.729Z,23.50
2022-10-26T15:16:54.253Z,23.30
2022-10-26T15:19:24.074Z,23.20
2022-10-26T15:21:54.601Z,23.00
2022-10-26T15:24:39.031Z,23.00
2022-10-26T15:27:16.203Z,23.00
2022-10-26T15:29:45.794Z,22.80
2022-10-26T15:32:28.169Z,22.70
2022-10-26T15:35:31.198Z,22.60
2022-10-26T15:38:01.036Z,22.70
2022-10-26T15:40:31.071Z,22.40
2022-10-26T15:43:01.730Z,22.50
2022-10-26T15:45:33.101Z,22.40
2022-10-26T15:48:20.477Z,22.30
2022-10-26T15:50:49.382Z,22.10
2022-10-26T15:53:21.740Z,22.10
2022-10-26T15:55:51.065Z,21.80
2022-10-26T15:58:19.338Z,21.80
2022-10-26T16:00:47.884Z,21.80
2022-10-26T16:03:19.894Z,21.80
2022-10-26T16:05:48.481Z,21.70
2022-10-26T16:08:19.457Z,21.70
2022-10-26T16:10:48.572Z,21.70
2022-10-26T16:13:17.122Z,21.50
2022-10-26T16:15:45.997Z,21.40
2022-10-26T16:18:14.408Z,21.30
2022-10-26T16:20:46.615Z,21.20
2022-10-26T16:23:15.066Z,21.10
2022-10-26T16:25:45.243Z,21.20
2022-10-26T16:28:15.625Z,21.00
2022-10-26T16:30:44.018Z,20.90
2022-10-26T16:33:12.257Z,20.90
2022-10-26T16:35:40.624Z,20.90
2022-10-26T16:38:10.336Z,20.70
2022-10-26T16:40:38.772Z,20.80
2022-10-26T16:43:07.214Z,20.70
2022-10-26T16:45:35.496Z,20.60
2022-10-26T16:48:14.126Z,20.50
2022-10-26T16:50:42.435Z,20.50
2022-10-26T16:53:12.064Z,20.30
2022-10-26T16:55:40.487Z,20.30
2022-10-26T16:58:08.962Z,20.20
2022-10-26T17:00:37.650Z,20.20
2022-10-26T17:03:06.044Z,20.10
2022-10-26T17:05:34.208Z,20.00
2022-10-26T17:08:02.393Z,20.00
2022-10-26T17:10:31.934Z,20.00
2022-10-26T17:13:00.094Z,19.90
2022-10-26T17:15:29.083Z,19.90
2022-10-26T17:17:57.612Z,19.80
2022-10-26T17:20:25.792Z,19.80
2022-10-26T17:22:53.978Z,19.70
2022-10-26T17:25:22.383Z,19.80
2022-10-26T17:27:52.371Z,19.70
2022-10-26T17:30:20.575Z,19.60
2022-10-26T17:32:49.134Z,19.50
2022-10-26T17:35:18.961Z,19.50
2022-10-26T17:37:47.415Z,19.50
2022-10-26T17:40:15.716Z,19.50
2022-10-26T17:42:43.966Z,19.50
2022-10-26T17:45:13.735Z,19.50
2022-10-26T17:47:41.980Z,19.50
2022-10-26T17:50:10.962Z,19.50
2022-10-26T17:52:39.134Z,19.50
2022-10-26T17:55:07.748Z,19.40
2022-10-26T17:57:35.951Z,19.40
2022-10-26T18:00:05.228Z,19.40
2022-10-26T18:02:54.115Z,19.30
2022-10-26T18:05:25.637Z,19.40
2022-10-26T18:07:53.969Z,19.40
2022-10-26T18:10:38.345Z,19.50
2022-10-26T18:13:06.942Z,19.50
2022-10-26T18:15:39.375Z,19.50
2022-10-26T18:18:09.032Z,19.50
2022-10-26T18:20:37.565Z,19.40
2022-10-26T18:23:05.919Z,19.30
2022-10-26T18:25:37.774Z,19.30
2022-10-26T18:28:06.261Z,19.20
2022-10-26T18:30:35.546Z,19.10
2022-10-26T18:33:03.933Z,19.20
2022-10-26T18:35:33.541Z,19.10
2022-10-26T18:38:02.018Z,19.00
2022-10-26T18:40:30.580Z,19.00
2022-10-26T18:43:00.027Z,19.00
2022-10-26T18:45:28.211Z,18.90
2022-10-26T18:47:56.389Z,18.90
2022-10-26T18:50:24.551Z,18.90
2022-10-26T18:52:54.841Z,18.80
2022-10-26T18:55:23.725Z,18.80
2022-10-26T18:57:52.312Z,18.90
2022-10-26T19:00:21.030Z,18.90
2022-10-26T19:02:52.421Z,18.90
2022-10-26T19:05:20.910Z,19.10
2022-10-26T19:07:49.100Z,19.10
2022-10-26T19:10:19.329Z,19.10
2022-10-26T19:12:47.539Z,19.10
2022-10-26T19:15:15.885Z,19.20
2022-10-26T19:17:44.127Z,19.20
2022-10-26T19:20:13.014Z,19.10
2022-10-26T19:22:41.194Z,19.10
2022-10-26T19:25:10.552Z,19.00
2022-10-26T19:27:40.105Z,19.00
2022-10-26T19:30:09.351Z,19.00
2022-10-26T19:32:37.628Z,19.00
2022-10-26T19:35:06.258Z,19.00
2022-10-26T19:37:34.465Z,18.90
2022-10-26T19:40:02.685Z,18.90
2022-10-26T19:42:31.047Z,18.90
2022-10-26T19:45:00.546Z,18.80
2022-10-26T19:47:28.741Z,18.80
2022-10-26T19:49:57.571Z,18.70
2022-10-26T19:52:25.723Z,18.70
2022-10-26T19:54:54.617Z,18.70
2022-10-26T19:57:22.820Z,18.80
2022-10-26T19:59:50.986Z,18.80
2022-10-26T20:02:20.587Z,18.80
2022-10-26T20:04:48.753Z,18.80
2022-10-26T20:07:17.238Z,18.80
2022-10-26T20:09:45.407Z,18.80
2022-10-26T20:12:16.720Z,18.80
2022-10-26T20:14:44.874Z,18.70
2022-10-26T20:17:13.034Z,18.70
2022-10-26T20:19:42.600Z,18.60
2022-10-26T20:22:10.797Z,18.70
2022-10-26T20:24:38.963Z,18.60
2022-10-26T20:27:07.182Z,18.50
2022-10-26T20:29:35.325Z,18.40
2022-10-26T20:32:03.500Z,18.40
2022-10-26T20:34:31.797Z,18.40
2022-10-26T20:37:01.302Z,18.40
2022-10-26T20:39:29.990Z,18.30
2022-10-26T20:41:58.818Z,18.30
2022-10-26T20:44:32.226Z,18.30
2022-10-26T20:47:00.938Z,18.20
2022-10-26T20:49:29.621Z,18.20
2022-10-26T20:52:21.693Z,18.20
2022-10-26T20:54:56.592Z,18.20
2022-10-26T20:57:31.851Z,18.20
2022-10-26T21:00:04.271Z,18.20
2022-10-26T21:02:32.809Z,18.10
2022-10-26T21:05:00.980Z,18.00
2022-10-26T21:07:30.542Z,18.10
2022-10-26T21:10:00.023Z,18.00
2022-10-26T21:12:28.232Z,18.00
2022-10-26T21:14:56.402Z,17.90
2022-10-26T21:17:24.612Z,18.00
2022-10-26T21:19:52.758Z,18.00
2022-10-26T21:22:20.935Z,18.00
2022-10-26T21:24:50.490Z,17.90
2022-10-26T21:27:18.651Z,17.90
2022-10-26T21:29:46.847Z,17.90
2022-10-26T21:32:15.079Z,17.90
2022-10-26T21:34:43.258Z,17.80
2022-10-26T21:37:11.402Z,17.80
2022-10-26T21:39:39.613Z,17.80
2022-10-26T21:42:09.493Z,17.80
2022-10-26T21:44:41.351Z,17.80
2022-10-26T21:47:10.284Z,17.70
2022-10-26T21:49:38.605Z,17.70
2022-10-26T21:52:07.077Z,17.70
2022-10-26T21:54:35.329Z,17.70
2022-10-26T21:57:03.531Z,17.70
2022-10-26T21:59:33.090Z,17.70
2022-10-26T22:02:01.383Z,17.70
2022-10-26T22:04:29.803Z,17.30
2022-10-26T22:06:57.942Z,17.70
2022-10-26T22:09:26.147Z,17.70
2022-10-26T22:11:54.287Z,17.60
2022-10-26T22:14:22.953Z,17.50
2022-10-26T22:16:52.513Z,17.50
2022-10-26T22:19:20.678Z,17.50
2022-10-26T22:21:48.828Z,17.40
2022-10-26T22:24:17.189Z,17.40
2022-10-26T22:26:45.482Z,17.40
2022-10-26T22:29:13.687Z,17.40
2022-10-26T22:31:42.277Z,17.30
2022-10-26T22:34:15.970Z,17.20
2022-10-26T22:36:44.897Z,17.20
2022-10-26T22:39:13.082Z,17.10
2022-10-26T22:41:41.410Z,17.20
2022-10-26T22:44:09.721Z,17.10
2022-10-26T22:46:37.862Z,17.00
2022-10-26T22:49:08.715Z,16.80
2022-10-26T22:51:38.338Z,16.80
2022-10-26T22:54:07.082Z,16.80
2022-10-26T22:56:37.242Z,16.70
2022-10-26T22:59:05.822Z,16.70
2022-10-26T23:01:38.185Z,16.70
2022-10-26T23:04:06.751Z,16.60
2022-10-26T23:06:35.389Z,16.60
2022-10-26T23:09:05.069Z,16.60
2022-10-26T23:11:33.607Z,16.60
2022-10-26T23:14:03.437Z,16.50
2022-10-26T23:16:32.082Z,16.50
2022-10-26T23:19:00.627Z,16.40
2022-10-26T23:21:29.741Z,16.40
2022-10-26T23:23:59.015Z,16.40
2022-10-26T23:26:28.618Z,16.50
2022-10-26T23:28:57.019Z,16.40
2022-10-26T23:31:27.374Z,16.40
2022-10-26T23:33:57.189Z,16.50
2022-10-26T23:36:25.989Z,16.40
2022-10-26T23:38:54.305Z,16.40
2022-10-26T23:41:22.501Z,16.30
2022-10-26T23:43:52.044Z,16.30
2022-10-26T23:46:20.294Z,16.30
2022-10-26T23:48:48.493Z,16.30
2022-10-26T23:51:16.719Z,16.30
2022-10-26T23:53:44.866Z,16.20
2022-10-26T23:56:13.047Z,16.30
2022-10-26T23:58:41.285Z,16.30
